sensor_id;sensor_type;location;lat;lon;timestamp;P1;durP1;ratioP1;P2;durP2;ratioP2
76727;SDS011;65652;53.132;18.026;2023-05-10T00:01:39;6.40;;;2.70;;
76727;SDS011;65652;53.132;18.026;2023-05-10T00:04:06;7.80;;;3.30;;
76727;SDS011;65652;53.132;18.026;2023-05-10T00:06:34;7.20;;;3.10;;
76727;SDS011;65652;53.132;18.026;2023-05-10T00:09:00;8.20;;;3.20;;
76727;SDS011;65652;53.132;18.026;2023-05-10T00:11:27;7.60;;;3.20;;
76727;SDS011;65652;53.132;18.026;2023-05-10T00:13:54;8.10;;;3.10;;
76727;SDS011;65652;53.132;18.026;2023-05-10T00:16:21;8.30;;;2.90;;
76727;SDS011;65652;53.132;18.026;2023-05-10T00:18:48;7.10;;;2.80;;
76727;SDS011;65652;53.132;18.026;2023-05-10T00:21:15;6.30;;;2.70;;
76727;SDS011;65652;53.132;18.026;2023-05-10T00:23:41;6.50;;;2.80;;
76727;SDS011;65652;53.132;18.026;2023-05-10T00:26:08;6.80;;;2.90;;
76727;SDS011;65652;53.132;18.026;2023-05-10T00:28:37;8.80;;;3.20;;
76727;SDS011;65652;53.132;18.026;2023-05-10T00:31:04;6.90;;;3.00;;
76727;SDS011;65652;53.132;18.026;2023-05-10T00:33:31;6.30;;;3.00;;
76727;SDS011;65652;53.132;18.026;2023-05-10T00:35:58;6.30;;;3.10;;
76727;SDS011;65652;53.132;18.026;2023-05-10T00:38:25;7.70;;;3.20;;
76727;SDS011;65652;53.132;18.026;2023-05-10T00:40:52;6.30;;;2.90;;
76727;SDS011;65652;53.132;18.026;2023-05-10T00:43:24;6.30;;;2.90;;
76727;SDS011;65652;53.132;18.026;2023-05-10T00:45:51;8.80;;;3.50;;
76727;SDS011;65652;53.132;18.026;2023-05-10T00:48:19;8.40;;;3.20;;
76727;SDS011;65652;53.132;18.026;2023-05-10T00:50:46;8.30;;;3.70;;
76727;SDS011;65652;53.132;18.026;2023-05-10T00:53:14;8.30;;;3.50;;
76727;SDS011;65652;53.132;18.026;2023-05-10T00:55:41;7.90;;;3.60;;
76727;SDS011;65652;53.132;18.026;2023-05-10T00:58:08;7.90;;;3.10;;
76727;SDS011;65652;53.132;18.026;2023-05-10T01:00:35;7.90;;;2.90;;
76727;SDS011;65652;53.132;18.026;2023-05-10T01:03:05;7.40;;;3.10;;
76727;SDS011;65652;53.132;18.026;2023-05-10T01:05:32;7.50;;;3.40;;
76727;SDS011;65652;53.132;18.026;2023-05-10T01:07:58;9.20;;;3.30;;
76727;SDS011;65652;53.132;18.026;2023-05-10T01:10:25;8.00;;;3.20;;
76727;SDS011;65652;53.132;18.026;2023-05-10T01:12:52;8.90;;;3.10;;
76727;SDS011;65652;53.132;18.026;2023-05-10T01:15:19;7.60;;;3.20;;
76727;SDS011;65652;53.132;18.026;2023-05-10T01:17:47;6.60;;;3.30;;
76727;SDS011;65652;53.132;18.026;2023-05-10T01:20:15;6.60;;;2.70;;
76727;SDS011;65652;53.132;18.026;2023-05-10T01:34:35;7.40;;;3.00;;
76727;SDS011;65652;53.132;18.026;2023-05-10T01:37:10;7.90;;;3.00;;
76727;SDS011;65652;53.132;18.026;2023-05-10T01:39:47;7.60;;;3.20;;
76727;SDS011;65652;53.132;18.026;2023-05-10T01:42:21;6.60;;;3.20;;
76727;SDS011;65652;53.132;18.026;2023-05-10T01:44:58;8.60;;;3.20;;
76727;SDS011;65652;53.132;18.026;2023-05-10T01:47:43;7.10;;;3.50;;
76727;SDS011;65652;53.132;18.026;2023-05-10T01:50:18;11.00;;;3.20;;
76727;SDS011;65652;53.132;18.026;2023-05-10T01:52:53;7.50;;;3.60;;
76727;SDS011;65652;53.132;18.026;2023-05-10T01:55:22;11.10;;;3.90;;
76727;SDS011;65652;53.132;18.026;2023-05-10T01:57:52;8.90;;;3.80;;
76727;SDS011;65652;53.132;18.026;2023-05-10T02:00:26;10.50;;;4.30;;
76727;SDS011;65652;53.132;18.026;2023-05-10T02:02:55;6.40;;;3.20;;
76727;SDS011;65652;53.132;18.026;2023-05-10T02:05:22;7.10;;;3.60;;
76727;SDS011;65652;53.132;18.026;2023-05-10T02:10:18;9.50;;;3.60;;
76727;SDS011;65652;53.132;18.026;2023-05-10T02:12:47;8.60;;;4.10;;
76727;SDS011;65652;53.132;18.026;2023-05-10T02:15:17;9.30;;;3.80;;
76727;SDS011;65652;53.132;18.026;2023-05-10T02:17:47;9.10;;;3.50;;
76727;SDS011;65652;53.132;18.026;2023-05-10T02:20:16;9.70;;;3.50;;
76727;SDS011;65652;53.132;18.026;2023-05-10T02:22:44;8.50;;;3.70;;
76727;SDS011;65652;53.132;18.026;2023-05-10T02:25:13;8.60;;;3.10;;
76727;SDS011;65652;53.132;18.026;2023-05-10T02:27:42;9.30;;;4.10;;
76727;SDS011;65652;53.132;18.026;2023-05-10T02:30:11;8.90;;;3.60;;
76727;SDS011;65652;53.132;18.026;2023-05-10T02:32:38;10.50;;;4.20;;
76727;SDS011;65652;53.132;18.026;2023-05-10T02:35:06;7.60;;;3.50;;
76727;SDS011;65652;53.132;18.026;2023-05-10T02:37:35;8.50;;;3.80;;
76727;SDS011;65652;53.132;18.026;2023-05-10T02:40:04;7.20;;;3.40;;
76727;SDS011;65652;53.132;18.026;2023-05-10T02:42:33;7.90;;;3.60;;
76727;SDS011;65652;53.132;18.026;2023-05-10T02:45:05;8.60;;;3.50;;
76727;SDS011;65652;53.132;18.026;2023-05-10T02:47:37;8.70;;;4.40;;
76727;SDS011;65652;53.132;18.026;2023-05-10T02:50:05;10.10;;;3.90;;
76727;SDS011;65652;53.132;18.026;2023-05-10T02:55:05;9.80;;;4.20;;
76727;SDS011;65652;53.132;18.026;2023-05-10T02:57:36;8.60;;;4.10;;
76727;SDS011;65652;53.132;18.026;2023-05-10T03:00:07;9.50;;;3.90;;
76727;SDS011;65652;53.132;18.026;2023-05-10T03:02:35;7.30;;;3.80;;
76727;SDS011;65652;53.132;18.026;2023-05-10T03:07:30;8.60;;;4.40;;
76727;SDS011;65652;53.132;18.026;2023-05-10T03:09:57;10.30;;;4.90;;
76727;SDS011;65652;53.132;18.026;2023-05-10T03:12:31;9.90;;;4.60;;
76727;SDS011;65652;53.132;18.026;2023-05-10T03:20:42;9.40;;;4.50;;
76727;SDS011;65652;53.132;18.026;2023-05-10T03:23:35;9.00;;;4.10;;
76727;SDS011;65652;53.132;18.026;2023-05-10T03:26:02;8.90;;;4.00;;
76727;SDS011;65652;53.132;18.026;2023-05-10T03:28:31;9.30;;;4.00;;
76727;SDS011;65652;53.132;18.026;2023-05-10T03:31:01;8.00;;;3.20;;
76727;SDS011;65652;53.132;18.026;2023-05-10T03:33:31;9.50;;;3.50;;
76727;SDS011;65652;53.132;18.026;2023-05-10T03:35:59;8.00;;;3.20;;
76727;SDS011;65652;53.132;18.026;2023-05-10T03:38:26;9.10;;;3.20;;
76727;SDS011;65652;53.132;18.026;2023-05-10T03:40:54;7.60;;;3.40;;
76727;SDS011;65652;53.132;18.026;2023-05-10T03:43:22;8.20;;;3.70;;
76727;SDS011;65652;53.132;18.026;2023-05-10T03:45:49;9.20;;;3.70;;
76727;SDS011;65652;53.132;18.026;2023-05-10T03:48:16;7.60;;;3.50;;
76727;SDS011;65652;53.132;18.026;2023-05-10T03:50:43;7.20;;;3.00;;
76727;SDS011;65652;53.132;18.026;2023-05-10T03:53:10;9.30;;;3.70;;
76727;SDS011;65652;53.132;18.026;2023-05-10T03:55:36;8.00;;;3.70;;
76727;SDS011;65652;53.132;18.026;2023-05-10T03:58:03;8.10;;;3.10;;
76727;SDS011;65652;53.132;18.026;2023-05-10T04:00:30;8.90;;;3.30;;
76727;SDS011;65652;53.132;18.026;2023-05-10T04:02:58;7.70;;;3.60;;
76727;SDS011;65652;53.132;18.026;2023-05-10T04:05:24;8.50;;;3.90;;
76727;SDS011;65652;53.132;18.026;2023-05-10T04:07:53;7.90;;;3.30;;
76727;SDS011;65652;53.132;18.026;2023-05-10T04:10:19;6.70;;;3.40;;
76727;SDS011;65652;53.132;18.026;2023-05-10T04:12:47;9.80;;;3.70;;
76727;SDS011;65652;53.132;18.026;2023-05-10T04:15:14;8.30;;;3.80;;
76727;SDS011;65652;53.132;18.026;2023-05-10T04:17:41;7.00;;;3.30;;
76727;SDS011;65652;53.132;18.026;2023-05-10T04:20:09;7.90;;;3.40;;
76727;SDS011;65652;53.132;18.026;2023-05-10T04:22:36;6.20;;;2.20;;
76727;SDS011;65652;53.132;18.026;2023-05-10T04:25:03;12.60;;;5.10;;
76727;SDS011;65652;53.132;18.026;2023-05-10T04:27:31;7.50;;;3.00;;
76727;SDS011;65652;53.132;18.026;2023-05-10T04:29:58;8.20;;;3.60;;
76727;SDS011;65652;53.132;18.026;2023-05-10T04:32:25;8.70;;;3.30;;
76727;SDS011;65652;53.132;18.026;2023-05-10T04:34:52;10.30;;;3.80;;
76727;SDS011;65652;53.132;18.026;2023-05-10T04:37:19;8.90;;;3.50;;
76727;SDS011;65652;53.132;18.026;2023-05-10T04:42:14;6.60;;;3.00;;
76727;SDS011;65652;53.132;18.026;2023-05-10T04:44:41;6.00;;;2.80;;
76727;SDS011;65652;53.132;18.026;2023-05-10T04:47:08;10.00;;;3.50;;
76727;SDS011;65652;53.132;18.026;2023-05-10T04:49:35;8.50;;;3.60;;
76727;SDS011;65652;53.132;18.026;2023-05-10T04:52:02;11.30;;;3.90;;
76727;SDS011;65652;53.132;18.026;2023-05-10T04:54:29;7.00;;;2.90;;
76727;SDS011;65652;53.132;18.026;2023-05-10T04:56:56;9.40;;;3.40;;
76727;SDS011;65652;53.132;18.026;2023-05-10T04:59:23;8.30;;;2.80;;
76727;SDS011;65652;53.132;18.026;2023-05-10T05:01:50;9.90;;;3.60;;
76727;SDS011;65652;53.132;18.026;2023-05-10T05:04:17;7.70;;;3.40;;
76727;SDS011;65652;53.132;18.026;2023-05-10T05:06:44;9.50;;;3.50;;
76727;SDS011;65652;53.132;18.026;2023-05-10T05:09:11;9.30;;;3.70;;
76727;SDS011;65652;53.132;18.026;2023-05-10T05:11:37;7.70;;;3.30;;
76727;SDS011;65652;53.132;18.026;2023-05-10T05:14:04;11.00;;;3.60;;
76727;SDS011;65652;53.132;18.026;2023-05-10T05:16:31;10.50;;;3.80;;
76727;SDS011;65652;53.132;18.026;2023-05-10T05:18:59;8.10;;;3.00;;
76727;SDS011;65652;53.132;18.026;2023-05-10T05:21:27;7.70;;;3.10;;
76727;SDS011;65652;53.132;18.026;2023-05-10T05:23:55;9.70;;;3.10;;
76727;SDS011;65652;53.132;18.026;2023-05-10T05:26:22;7.70;;;3.80;;
76727;SDS011;65652;53.132;18.026;2023-05-10T05:28:48;8.00;;;3.50;;
76727;SDS011;65652;53.132;18.026;2023-05-10T05:31:18;7.10;;;3.10;;
76727;SDS011;65652;53.132;18.026;2023-05-10T05:33:45;7.00;;;3.10;;
76727;SDS011;65652;53.132;18.026;2023-05-10T05:36:12;6.70;;;2.90;;
76727;SDS011;65652;53.132;18.026;2023-05-10T05:38:39;7.00;;;3.20;;
76727;SDS011;65652;53.132;18.026;2023-05-10T05:41:06;9.10;;;2.90;;
76727;SDS011;65652;53.132;18.026;2023-05-10T05:43:33;8.90;;;3.60;;
76727;SDS011;65652;53.132;18.026;2023-05-10T05:46:00;8.40;;;3.10;;
76727;SDS011;65652;53.132;18.026;2023-05-10T05:48:27;8.30;;;2.90;;
76727;SDS011;65652;53.132;18.026;2023-05-10T05:50:55;8.60;;;2.90;;
76727;SDS011;65652;53.132;18.026;2023-05-10T05:53:23;8.00;;;2.90;;
76727;SDS011;65652;53.132;18.026;2023-05-10T05:55:54;7.50;;;2.60;;
76727;SDS011;65652;53.132;18.026;2023-05-10T05:58:22;6.80;;;2.90;;
76727;SDS011;65652;53.132;18.026;2023-05-10T06:00:49;10.20;;;2.80;;
76727;SDS011;65652;53.132;18.026;2023-05-10T06:03:17;6.20;;;2.30;;
76727;SDS011;65652;53.132;18.026;2023-05-10T06:05:44;7.20;;;2.70;;
76727;SDS011;65652;53.132;18.026;2023-05-10T06:08:11;5.60;;;2.30;;
76727;SDS011;65652;53.132;18.026;2023-05-10T06:10:38;8.20;;;2.50;;
76727;SDS011;65652;53.132;18.026;2023-05-10T06:13:05;4.80;;;1.80;;
76727;SDS011;65652;53.132;18.026;2023-05-10T06:15:32;8.40;;;2.00;;
76727;SDS011;65652;53.132;18.026;2023-05-10T06:17:59;9.60;;;2.50;;
76727;SDS011;65652;53.132;18.026;2023-05-10T06:20:26;6.10;;;2.00;;
76727;SDS011;65652;53.132;18.026;2023-05-10T06:22:52;7.90;;;2.80;;
76727;SDS011;65652;53.132;18.026;2023-05-10T06:25:19;7.50;;;2.60;;
76727;SDS011;65652;53.132;18.026;2023-05-10T06:27:46;6.80;;;2.20;;
76727;SDS011;65652;53.132;18.026;2023-05-10T06:30:13;7.30;;;2.20;;
76727;SDS011;65652;53.132;18.026;2023-05-10T06:32:41;6.10;;;2.60;;
76727;SDS011;65652;53.132;18.026;2023-05-10T06:35:10;6.40;;;2.40;;
76727;SDS011;65652;53.132;18.026;2023-05-10T06:37:37;6.00;;;2.00;;
76727;SDS011;65652;53.132;18.026;2023-05-10T06:40:04;5.90;;;2.30;;
76727;SDS011;65652;53.132;18.026;2023-05-10T06:42:32;5.90;;;2.20;;
76727;SDS011;65652;53.132;18.026;2023-05-10T06:44:59;6.80;;;2.10;;
76727;SDS011;65652;53.132;18.026;2023-05-10T06:47:26;6.10;;;2.70;;
76727;SDS011;65652;53.132;18.026;2023-05-10T06:49:53;7.30;;;2.50;;
76727;SDS011;65652;53.132;18.026;2023-05-10T06:52:20;5.80;;;2.10;;
76727;SDS011;65652;53.132;18.026;2023-05-10T06:54:46;6.30;;;2.00;;
76727;SDS011;65652;53.132;18.026;2023-05-10T06:57:14;9.60;;;2.60;;
76727;SDS011;65652;53.132;18.026;2023-05-10T06:59:40;5.40;;;2.10;;
76727;SDS011;65652;53.132;18.026;2023-05-10T07:02:07;6.10;;;1.90;;
76727;SDS011;65652;53.132;18.026;2023-05-10T07:04:34;6.40;;;2.00;;
76727;SDS011;65652;53.132;18.026;2023-05-10T07:07:01;6.10;;;2.30;;
76727;SDS011;65652;53.132;18.026;2023-05-10T07:09:28;7.70;;;2.30;;
76727;SDS011;65652;53.132;18.026;2023-05-10T07:11:55;4.90;;;1.80;;
76727;SDS011;65652;53.132;18.026;2023-05-10T07:14:22;5.50;;;2.30;;
76727;SDS011;65652;53.132;18.026;2023-05-10T07:16:49;6.60;;;2.00;;
76727;SDS011;65652;53.132;18.026;2023-05-10T07:19:16;6.20;;;2.30;;
76727;SDS011;65652;53.132;18.026;2023-05-10T07:21:42;6.60;;;2.30;;
76727;SDS011;65652;53.132;18.026;2023-05-10T07:24:09;7.80;;;2.30;;
76727;SDS011;65652;53.132;18.026;2023-05-10T07:26:36;9.10;;;2.90;;
76727;SDS011;65652;53.132;18.026;2023-05-10T07:29:03;5.10;;;2.20;;
76727;SDS011;65652;53.132;18.026;2023-05-10T07:31:30;6.60;;;2.30;;
76727;SDS011;65652;53.132;18.026;2023-05-10T07:33:57;10.80;;;2.40;;
76727;SDS011;65652;53.132;18.026;2023-05-10T07:36:24;7.90;;;2.40;;
76727;SDS011;65652;53.132;18.026;2023-05-10T07:38:51;7.30;;;2.50;;
76727;SDS011;65652;53.132;18.026;2023-05-10T07:41:18;7.10;;;2.20;;
76727;SDS011;65652;53.132;18.026;2023-05-10T07:43:44;5.10;;;1.80;;
76727;SDS011;65652;53.132;18.026;2023-05-10T07:46:11;4.60;;;1.70;;
76727;SDS011;65652;53.132;18.026;2023-05-10T07:48:38;5.60;;;1.90;;
76727;SDS011;65652;53.132;18.026;2023-05-10T07:51:05;5.70;;;1.90;;
76727;SDS011;65652;53.132;18.026;2023-05-10T07:53:33;6.10;;;1.90;;
76727;SDS011;65652;53.132;18.026;2023-05-10T07:56:19;6.30;;;1.90;;
76727;SDS011;65652;53.132;18.026;2023-05-10T07:58:47;3.90;;;1.50;;
76727;SDS011;65652;53.132;18.026;2023-05-10T08:01:14;9.50;;;2.40;;
76727;SDS011;65652;53.132;18.026;2023-05-10T08:03:41;4.70;;;1.60;;
76727;SDS011;65652;53.132;18.026;2023-05-10T08:06:08;4.70;;;1.70;;
76727;SDS011;65652;53.132;18.026;2023-05-10T08:08:35;5.00;;;1.80;;
76727;SDS011;65652;53.132;18.026;2023-05-10T08:11:03;6.20;;;1.90;;
76727;SDS011;65652;53.132;18.026;2023-05-10T08:13:31;5.40;;;2.00;;
76727;SDS011;65652;53.132;18.026;2023-05-10T08:15:58;4.80;;;1.90;;
76727;SDS011;65652;53.132;18.026;2023-05-10T08:18:24;5.60;;;1.70;;
76727;SDS011;65652;53.132;18.026;2023-05-10T08:20:51;4.50;;;1.60;;
76727;SDS011;65652;53.132;18.026;2023-05-10T08:23:18;5.50;;;1.90;;
76727;SDS011;65652;53.132;18.026;2023-05-10T08:25:45;5.70;;;2.00;;
76727;SDS011;65652;53.132;18.026;2023-05-10T08:28:12;4.60;;;2.20;;
76727;SDS011;65652;53.132;18.026;2023-05-10T08:30:38;5.70;;;1.60;;
76727;SDS011;65652;53.132;18.026;2023-05-10T08:33:05;6.10;;;2.30;;
76727;SDS011;65652;53.132;18.026;2023-05-10T08:35:32;6.40;;;2.10;;
76727;SDS011;65652;53.132;18.026;2023-05-10T08:38:01;5.80;;;1.80;;
76727;SDS011;65652;53.132;18.026;2023-05-10T08:40:28;4.70;;;1.70;;
76727;SDS011;65652;53.132;18.026;2023-05-10T08:43:11;6.50;;;1.90;;
76727;SDS011;65652;53.132;18.026;2023-05-10T08:45:39;6.40;;;2.20;;
76727;SDS011;65652;53.132;18.026;2023-05-10T08:48:08;6.70;;;2.10;;
76727;SDS011;65652;53.132;18.026;2023-05-10T08:50:37;5.80;;;1.90;;
76727;SDS011;65652;53.132;18.026;2023-05-10T08:53:11;5.60;;;1.60;;
76727;SDS011;65652;53.132;18.026;2023-05-10T08:55:39;5.30;;;1.80;;
76727;SDS011;65652;53.132;18.026;2023-05-10T08:58:08;7.00;;;2.10;;
76727;SDS011;65652;53.132;18.026;2023-05-10T09:00:36;5.60;;;1.80;;
76727;SDS011;65652;53.132;18.026;2023-05-10T09:03:04;5.10;;;1.80;;
76727;SDS011;65652;53.132;18.026;2023-05-10T09:05:31;5.20;;;1.90;;
76727;SDS011;65652;53.132;18.026;2023-05-10T09:07:58;5.30;;;2.10;;
76727;SDS011;65652;53.132;18.026;2023-05-10T09:10:27;5.70;;;1.70;;
76727;SDS011;65652;53.132;18.026;2023-05-10T09:12:56;5.00;;;1.70;;
76727;SDS011;65652;53.132;18.026;2023-05-10T09:15:23;7.60;;;2.20;;
76727;SDS011;65652;53.132;18.026;2023-05-10T09:17:50;7.10;;;2.00;;
76727;SDS011;65652;53.132;18.026;2023-05-10T09:20:18;8.20;;;2.20;;
76727;SDS011;65652;53.132;18.026;2023-05-10T09:22:46;7.50;;;2.70;;
76727;SDS011;65652;53.132;18.026;2023-05-10T09:25:14;7.20;;;2.40;;
76727;SDS011;65652;53.132;18.026;2023-05-10T09:27:46;6.80;;;3.20;;
76727;SDS011;65652;53.132;18.026;2023-05-10T09:30:22;10.50;;;6.30;;
76727;SDS011;65652;53.132;18.026;2023-05-10T09:32:52;10.30;;;5.20;;
76727;SDS011;65652;53.132;18.026;2023-05-10T09:35:20;6.80;;;2.80;;
76727;SDS011;65652;53.132;18.026;2023-05-10T09:37:50;5.70;;;2.40;;
76727;SDS011;65652;53.132;18.026;2023-05-10T09:40:19;11.70;;;3.70;;
76727;SDS011;65652;53.132;18.026;2023-05-10T09:43:03;9.00;;;4.60;;
76727;SDS011;65652;53.132;18.026;2023-05-10T09:45:34;8.40;;;4.50;;
76727;SDS011;65652;53.132;18.026;2023-05-10T09:48:02;9.00;;;4.30;;
76727;SDS011;65652;53.132;18.026;2023-05-10T09:50:29;6.70;;;3.30;;
76727;SDS011;65652;53.132;18.026;2023-05-10T09:52:57;7.40;;;3.00;;
76727;SDS011;65652;53.132;18.026;2023-05-10T09:58:02;10.80;;;5.50;;
76727;SDS011;65652;53.132;18.026;2023-05-10T10:00:29;9.30;;;5.60;;
76727;SDS011;65652;53.132;18.026;2023-05-10T10:03:02;8.60;;;3.90;;
76727;SDS011;65652;53.132;18.026;2023-05-10T10:05:30;6.90;;;2.90;;
76727;SDS011;65652;53.132;18.026;2023-05-10T10:08:04;5.80;;;2.80;;
76727;SDS011;65652;53.132;18.026;2023-05-10T10:10:32;6.80;;;3.20;;
76727;SDS011;65652;53.132;18.026;2023-05-10T10:13:01;6.70;;;3.20;;
76727;SDS011;65652;53.132;18.026;2023-05-10T10:15:28;7.80;;;3.20;;
76727;SDS011;65652;53.132;18.026;2023-05-10T10:17:54;7.10;;;3.00;;
76727;SDS011;65652;53.132;18.026;2023-05-10T10:20:22;12.00;;;4.90;;
76727;SDS011;65652;53.132;18.026;2023-05-10T10:22:49;11.80;;;6.10;;
76727;SDS011;65652;53.132;18.026;2023-05-10T10:25:16;19.40;;;10.10;;
76727;SDS011;65652;53.132;18.026;2023-05-10T10:28:08;14.50;;;7.60;;
76727;SDS011;65652;53.132;18.026;2023-05-10T10:30:51;8.90;;;3.60;;
76727;SDS011;65652;53.132;18.026;2023-05-10T10:36:00;12.70;;;4.60;;
76727;SDS011;65652;53.132;18.026;2023-05-10T10:38:54;9.30;;;3.50;;
76727;SDS011;65652;53.132;18.026;2023-05-10T10:49:48;8.30;;;3.00;;
76727;SDS011;65652;53.132;18.026;2023-05-10T10:52:27;9.40;;;3.60;;
76727;SDS011;65652;53.132;18.026;2023-05-10T10:55:03;7.00;;;2.40;;
76727;SDS011;65652;53.132;18.026;2023-05-10T10:57:43;6.00;;;2.30;;
76727;SDS011;65652;53.132;18.026;2023-05-10T11:02:59;7.60;;;2.30;;
76727;SDS011;65652;53.132;18.026;2023-05-10T11:05:48;7.50;;;2.80;;
76727;SDS011;65652;53.132;18.026;2023-05-10T11:13:39;6.60;;;2.50;;
76727;SDS011;65652;53.132;18.026;2023-05-10T11:16:17;5.20;;;2.50;;
76727;SDS011;65652;53.132;18.026;2023-05-10T11:21:50;7.90;;;2.60;;
76727;SDS011;65652;53.132;18.026;2023-05-10T11:24:37;7.30;;;2.50;;
76727;SDS011;65652;53.132;18.026;2023-05-10T11:27:05;5.00;;;2.50;;
76727;SDS011;65652;53.132;18.026;2023-05-10T11:29:32;6.40;;;2.30;;
76727;SDS011;65652;53.132;18.026;2023-05-10T11:31:59;4.40;;;1.80;;
76727;SDS011;65652;53.132;18.026;2023-05-10T11:34:30;6.00;;;2.10;;
76727;SDS011;65652;53.132;18.026;2023-05-10T11:37:00;7.60;;;2.30;;
76727;SDS011;65652;53.132;18.026;2023-05-10T11:41:54;6.30;;;2.30;;
76727;SDS011;65652;53.132;18.026;2023-05-10T11:44:22;6.80;;;2.30;;
76727;SDS011;65652;53.132;18.026;2023-05-10T11:49:16;7.00;;;2.40;;
76727;SDS011;65652;53.132;18.026;2023-05-10T11:51:43;5.50;;;1.80;;
76727;SDS011;65652;53.132;18.026;2023-05-10T11:54:10;6.20;;;1.80;;
76727;SDS011;65652;53.132;18.026;2023-05-10T11:56:38;5.50;;;2.10;;
76727;SDS011;65652;53.132;18.026;2023-05-10T11:59:06;6.10;;;2.20;;
76727;SDS011;65652;53.132;18.026;2023-05-10T12:01:34;5.10;;;2.10;;
76727;SDS011;65652;53.132;18.026;2023-05-10T12:04:01;5.70;;;2.00;;
76727;SDS011;65652;53.132;18.026;2023-05-10T12:06:30;5.50;;;1.80;;
76727;SDS011;65652;53.132;18.026;2023-05-10T12:08:58;8.00;;;2.10;;
76727;SDS011;65652;53.132;18.026;2023-05-10T12:11:26;6.90;;;1.90;;
76727;SDS011;65652;53.132;18.026;2023-05-10T12:13:54;4.80;;;1.90;;
76727;SDS011;65652;53.132;18.026;2023-05-10T12:16:23;4.70;;;1.70;;
76727;SDS011;65652;53.132;18.026;2023-05-10T12:18:52;5.20;;;1.90;;
76727;SDS011;65652;53.132;18.026;2023-05-10T12:21:20;9.20;;;2.20;;
76727;SDS011;65652;53.132;18.026;2023-05-10T12:26:18;5.40;;;2.00;;
76727;SDS011;65652;53.132;18.026;2023-05-10T12:28:48;6.50;;;2.10;;
76727;SDS011;65652;53.132;18.026;2023-05-10T12:31:15;6.00;;;2.20;;
76727;SDS011;65652;53.132;18.026;2023-05-10T12:33:43;10.10;;;2.30;;
76727;SDS011;65652;53.132;18.026;2023-05-10T12:36:15;7.00;;;2.20;;
76727;SDS011;65652;53.132;18.026;2023-05-10T12:38:44;5.90;;;2.20;;
76727;SDS011;65652;53.132;18.026;2023-05-10T12:41:15;8.00;;;2.50;;
76727;SDS011;65652;53.132;18.026;2023-05-10T12:43:42;7.10;;;2.20;;
76727;SDS011;65652;53.132;18.026;2023-05-10T12:46:11;6.20;;;2.00;;
76727;SDS011;65652;53.132;18.026;2023-05-10T12:48:39;9.00;;;1.90;;
76727;SDS011;65652;53.132;18.026;2023-05-10T12:51:07;5.40;;;2.30;;
76727;SDS011;65652;53.132;18.026;2023-05-10T12:53:36;6.30;;;2.20;;
76727;SDS011;65652;53.132;18.026;2023-05-10T12:56:03;7.00;;;2.10;;
76727;SDS011;65652;53.132;18.026;2023-05-10T12:58:30;6.30;;;2.10;;
76727;SDS011;65652;53.132;18.026;2023-05-10T13:00:57;7.40;;;2.10;;
76727;SDS011;65652;53.132;18.026;2023-05-10T13:03:25;6.40;;;2.00;;
76727;SDS011;65652;53.132;18.026;2023-05-10T13:05:52;6.30;;;2.00;;
76727;SDS011;65652;53.132;18.026;2023-05-10T13:08:19;9.60;;;2.10;;
76727;SDS011;65652;53.132;18.026;2023-05-10T13:10:46;7.70;;;2.60;;
76727;SDS011;65652;53.132;18.026;2023-05-10T13:13:14;8.20;;;2.20;;
76727;SDS011;65652;53.132;18.026;2023-05-10T13:15:41;7.70;;;2.20;;
76727;SDS011;65652;53.132;18.026;2023-05-10T13:18:08;8.00;;;1.80;;
76727;SDS011;65652;53.132;18.026;2023-05-10T13:20:36;8.00;;;2.40;;
76727;SDS011;65652;53.132;18.026;2023-05-10T13:25:30;6.50;;;2.10;;
76727;SDS011;65652;53.132;18.026;2023-05-10T13:27:57;6.80;;;2.20;;
76727;SDS011;65652;53.132;18.026;2023-05-10T13:30:24;8.90;;;3.00;;
76727;SDS011;65652;53.132;18.026;2023-05-10T13:32:51;9.10;;;2.60;;
76727;SDS011;65652;53.132;18.026;2023-05-10T13:35:18;7.20;;;2.50;;
76727;SDS011;65652;53.132;18.026;2023-05-10T13:40:12;6.70;;;2.10;;
76727;SDS011;65652;53.132;18.026;2023-05-10T13:42:40;7.20;;;2.10;;
76727;SDS011;65652;53.132;18.026;2023-05-10T13:45:07;5.90;;;2.00;;
76727;SDS011;65652;53.132;18.026;2023-05-10T13:47:34;9.20;;;2.10;;
76727;SDS011;65652;53.132;18.026;2023-05-10T13:50:01;7.00;;;2.90;;
76727;SDS011;65652;53.132;18.026;2023-05-10T13:52:29;10.10;;;2.40;;
76727;SDS011;65652;53.132;18.026;2023-05-10T13:54:56;6.00;;;2.30;;
76727;SDS011;65652;53.132;18.026;2023-05-10T13:57:23;7.90;;;2.40;;
76727;SDS011;65652;53.132;18.026;2023-05-10T13:59:51;5.80;;;2.20;;
76727;SDS011;65652;53.132;18.026;2023-05-10T14:02:18;7.50;;;2.20;;
76727;SDS011;65652;53.132;18.026;2023-05-10T14:04:46;10.00;;;2.40;;
76727;SDS011;65652;53.132;18.026;2023-05-10T14:09:40;6.00;;;2.70;;
76727;SDS011;65652;53.132;18.026;2023-05-10T14:12:07;7.00;;;2.00;;
76727;SDS011;65652;53.132;18.026;2023-05-10T14:14:34;8.00;;;2.50;;
76727;SDS011;65652;53.132;18.026;2023-05-10T14:17:01;6.70;;;2.20;;
76727;SDS011;65652;53.132;18.026;2023-05-10T14:19:28;5.20;;;2.20;;
76727;SDS011;65652;53.132;18.026;2023-05-10T14:21:59;13.80;;;2.50;;
76727;SDS011;65652;53.132;18.026;2023-05-10T14:24:26;7.80;;;2.40;;
76727;SDS011;65652;53.132;18.026;2023-05-10T14:26:53;6.20;;;2.20;;
76727;SDS011;65652;53.132;18.026;2023-05-10T14:29:21;6.30;;;2.10;;
76727;SDS011;65652;53.132;18.026;2023-05-10T14:31:48;6.40;;;2.00;;
76727;SDS011;65652;53.132;18.026;2023-05-10T14:34:16;6.10;;;2.20;;
76727;SDS011;65652;53.132;18.026;2023-05-10T14:36:43;6.20;;;2.00;;
76727;SDS011;65652;53.132;18.026;2023-05-10T14:39:10;5.50;;;2.10;;
76727;SDS011;65652;53.132;18.026;2023-05-10T14:41:39;7.80;;;2.10;;
76727;SDS011;65652;53.132;18.026;2023-05-10T14:44:11;4.70;;;2.10;;
76727;SDS011;65652;53.132;18.026;2023-05-10T14:46:38;5.30;;;2.10;;
76727;SDS011;65652;53.132;18.026;2023-05-10T14:49:05;7.40;;;2.20;;
76727;SDS011;65652;53.132;18.026;2023-05-10T14:51:35;6.70;;;1.90;;
76727;SDS011;65652;53.132;18.026;2023-05-10T14:54:03;5.00;;;2.00;;
76727;SDS011;65652;53.132;18.026;2023-05-10T14:56:30;6.40;;;2.30;;
76727;SDS011;65652;53.132;18.026;2023-05-10T14:58:58;5.20;;;2.30;;
76727;SDS011;65652;53.132;18.026;2023-05-10T15:01:26;4.80;;;1.70;;
76727;SDS011;65652;53.132;18.026;2023-05-10T15:03:53;5.80;;;1.90;;
76727;SDS011;65652;53.132;18.026;2023-05-10T15:06:24;5.70;;;2.00;;
76727;SDS011;65652;53.132;18.026;2023-05-10T15:08:58;7.20;;;2.20;;
76727;SDS011;65652;53.132;18.026;2023-05-10T15:11:25;5.70;;;2.40;;
76727;SDS011;65652;53.132;18.026;2023-05-10T15:13:53;7.20;;;2.10;;
76727;SDS011;65652;53.132;18.026;2023-05-10T15:16:20;7.20;;;2.20;;
76727;SDS011;65652;53.132;18.026;2023-05-10T15:18:47;5.50;;;2.40;;
76727;SDS011;65652;53.132;18.026;2023-05-10T15:21:14;7.70;;;2.10;;
76727;SDS011;65652;53.132;18.026;2023-05-10T15:23:41;8.30;;;2.40;;
76727;SDS011;65652;53.132;18.026;2023-05-10T15:26:09;5.00;;;2.10;;
76727;SDS011;65652;53.132;18.026;2023-05-10T15:28:36;7.70;;;2.20;;
76727;SDS011;65652;53.132;18.026;2023-05-10T15:31:03;5.50;;;2.00;;
76727;SDS011;65652;53.132;18.026;2023-05-10T15:33:30;7.50;;;2.10;;
76727;SDS011;65652;53.132;18.026;2023-05-10T15:35:57;8.90;;;2.20;;
76727;SDS011;65652;53.132;18.026;2023-05-10T15:38:24;5.80;;;2.30;;
76727;SDS011;65652;53.132;18.026;2023-05-10T15:40:52;4.90;;;1.90;;
76727;SDS011;65652;53.132;18.026;2023-05-10T15:43:23;7.60;;;1.90;;
76727;SDS011;65652;53.132;18.026;2023-05-10T15:45:51;6.70;;;2.30;;
76727;SDS011;65652;53.132;18.026;2023-05-10T15:48:18;9.90;;;2.20;;